createdAt,value
2019-05-26T00:01:02.495Z,10.03
2019-05-26T00:03:32.061Z,9.88
2019-05-26T00:06:01.572Z,9.85
2019-05-26T00:08:30.881Z,10.10
2019-05-26T00:11:01.650Z,10.93
2019-05-26T00:13:31.499Z,11.18
2019-05-26T00:16:01.128Z,10.60
2019-05-26T00:18:33.375Z,13.27
2019-05-26T00:21:02.412Z,14.73
2019-05-26T00:23:31.561Z,13.48
2019-05-26T00:26:00.870Z,13.40
2019-05-26T00:28:30.190Z,14.63
2019-05-26T00:30:59.985Z,15.23
2019-05-26T00:33:29.347Z,13.68
2019-05-26T00:36:08.212Z,14.00
2019-05-26T00:38:37.396Z,14.40
2019-05-26T00:41:24.594Z,13.83
2019-05-26T00:43:57.023Z,13.77
2019-05-26T00:46:43.815Z,14.23
2019-05-26T00:49:16.557Z,12.50
2019-05-26T00:51:54.599Z,13.80
2019-05-26T00:54:25.092Z,12.73
2019-05-26T00:56:54.951Z,13.58
2019-05-26T00:59:40.799Z,12.35
2019-05-26T01:02:36.737Z,13.13
2019-05-26T01:05:22.456Z,11.75
2019-05-26T01:08:06.104Z,11.38
2019-05-26T01:10:33.619Z,11.60
2019-05-26T01:13:30.161Z,10.72
2019-05-26T01:16:19.706Z,11.63
2019-05-26T01:18:29.007Z,10.87
2019-05-26T01:20:58.420Z,11.00
2019-05-26T01:23:27.589Z,10.00
2019-05-26T01:25:57.484Z,9.63
2019-05-26T01:28:27.959Z,10.38
2019-05-26T01:31:16.842Z,9.33
2019-05-26T01:33:49.866Z,9.57
2019-05-26T01:37:00.306Z,8.98
2019-05-26T01:39:27.204Z,8.28
2019-05-26T01:41:56.323Z,7.80
2019-05-26T01:44:26.276Z,8.25
2019-05-26T01:46:55.667Z,8.03
2019-05-26T01:49:25.504Z,8.10
2019-05-26T01:51:55.350Z,7.40
2019-05-26T01:54:24.546Z,6.92
2019-05-26T01:56:53.799Z,6.95
2019-05-26T01:59:23.563Z,6.90
2019-05-26T02:01:53.239Z,6.42
2019-05-26T02:04:23.160Z,6.20
2019-05-26T02:06:53.291Z,6.10
2019-05-26T02:09:22.541Z,6.17
2019-05-26T02:11:52.550Z,5.28
2019-05-26T02:14:22.322Z,5.47
2019-05-26T02:16:52.319Z,5.05
2019-05-26T02:19:22.318Z,4.60
2019-05-26T02:21:52.508Z,5.00
2019-05-26T02:24:21.959Z,4.75
2019-05-26T02:26:51.580Z,5.03
2019-05-26T02:29:20.858Z,4.87
2019-05-26T02:31:50.693Z,4.90
2019-05-26T02:34:19.970Z,4.30
2019-05-26T02:36:49.169Z,4.42
2019-05-26T02:39:18.324Z,4.50
2019-05-26T02:41:48.049Z,4.33
2019-05-26T02:44:17.295Z,3.60
2019-05-26T02:46:48.542Z,3.83
2019-05-26T02:49:18.020Z,3.77
2019-05-26T02:51:47.562Z,3.80
2019-05-26T02:54:17.193Z,3.53
2019-05-26T02:56:49.137Z,3.80
2019-05-26T02:59:18.680Z,3.80
2019-05-26T03:02:02.206Z,3.50
2019-05-26T03:04:19.606Z,3.70
2019-05-26T03:06:50.382Z,3.67
2019-05-26T03:09:23.513Z,3.30
2019-05-26T03:11:54.859Z,3.33
2019-05-26T03:14:27.301Z,3.20
2019-05-26T03:17:00.623Z,3.47
2019-05-26T03:19:32.073Z,3.30
2019-05-26T03:22:04.924Z,3.35
2019-05-26T03:24:34.399Z,3.67
2019-05-26T03:27:09.191Z,3.60
2019-05-26T03:29:40.666Z,3.70
2019-05-26T03:32:12.588Z,3.62
2019-05-26T03:34:48.143Z,3.00
2019-05-26T03:37:20.186Z,3.58
2019-05-26T03:39:54.982Z,3.10
2019-05-26T03:42:26.309Z,3.12
2019-05-26T03:44:55.793Z,2.93
2019-05-26T03:47:27.490Z,3.20
2019-05-26T03:50:00.074Z,3.05
2019-05-26T03:52:38.495Z,2.75
2019-05-26T03:55:10.184Z,2.80
2019-05-26T03:57:41.026Z,2.87
2019-05-26T04:00:16.029Z,3.00
2019-05-26T04:02:50.421Z,2.80
2019-05-26T04:05:20.106Z,2.62
2019-05-26T04:07:50.781Z,3.00
2019-05-26T04:10:22.447Z,2.73
2019-05-26T04:12:52.036Z,2.83
2019-05-26T04:15:21.521Z,2.90
2019-05-26T04:17:50.994Z,2.80
2019-05-26T04:20:20.466Z,2.70
2019-05-26T04:22:50.318Z,2.63
2019-05-26T04:25:19.446Z,3.20
2019-05-26T04:27:48.962Z,2.90
2019-05-26T04:30:18.613Z,2.60
2019-05-26T04:32:50.284Z,2.80
2019-05-26T04:35:19.818Z,3.03
2019-05-26T04:37:49.605Z,2.43
2019-05-26T04:40:27.878Z,2.85
2019-05-26T04:42:50.296Z,2.65
2019-05-26T04:45:20.223Z,2.85
2019-05-26T04:47:51.046Z,2.72
2019-05-26T04:50:20.721Z,2.75
2019-05-26T04:53:05.410Z,2.50
2019-05-26T04:55:31.001Z,2.98
2019-05-26T04:58:03.667Z,2.60
2019-05-26T05:00:35.009Z,2.58
2019-05-26T05:03:06.865Z,2.62
2019-05-26T05:05:38.106Z,2.60
2019-05-26T05:08:08.358Z,2.72
2019-05-26T05:10:42.407Z,3.00
2019-05-26T05:13:10.199Z,2.90
2019-05-26T05:15:40.820Z,2.67
2019-05-26T05:18:10.236Z,3.10
2019-05-26T05:20:39.981Z,2.87
2019-05-26T05:23:12.456Z,2.67
2019-05-26T05:25:45.200Z,2.90
2019-05-26T05:28:14.961Z,2.93
2019-05-26T05:30:44.962Z,2.70
2019-05-26T05:33:14.605Z,2.80
2019-05-26T05:35:44.755Z,2.80
2019-05-26T05:38:14.522Z,2.58
2019-05-26T05:40:58.766Z,2.47
2019-05-26T05:43:19.312Z,2.87
2019-05-26T05:46:07.746Z,2.92
2019-05-26T05:48:37.110Z,2.90
2019-05-26T05:51:06.658Z,2.70
2019-05-26T05:53:36.155Z,2.80
2019-05-26T05:56:06.789Z,3.10
2019-05-26T05:58:37.200Z,3.05
2019-05-26T06:01:07.647Z,3.37
2019-05-26T06:03:38.994Z,2.80
2019-05-26T06:06:08.950Z,3.50
2019-05-26T06:08:40.566Z,3.12
2019-05-26T06:11:16.671Z,2.83
2019-05-26T06:13:41.493Z,3.30
2019-05-26T06:16:12.933Z,3.40
2019-05-26T06:18:42.946Z,3.20
2019-05-26T06:21:13.066Z,3.50
2019-05-26T06:23:45.965Z,3.40
2019-05-26T06:26:16.801Z,3.10
2019-05-26T06:28:46.417Z,3.22
2019-05-26T06:31:16.727Z,3.60
2019-05-26T06:33:49.324Z,3.47
2019-05-26T06:36:19.539Z,4.15
2019-05-26T06:38:49.478Z,3.72
2019-05-26T06:41:32.779Z,4.85
2019-05-26T06:43:56.675Z,4.62
2019-05-26T06:46:27.830Z,4.43
2019-05-26T06:48:58.072Z,4.63
2019-05-26T06:51:30.855Z,4.50
2019-05-26T06:54:01.764Z,4.60
2019-05-26T06:56:32.486Z,4.42
2019-05-26T06:59:04.237Z,4.42
2019-05-26T07:01:35.090Z,4.20
2019-05-26T07:04:05.009Z,4.65
2019-05-26T07:06:36.110Z,4.35
2019-05-26T07:09:07.228Z,4.28
2019-05-26T07:11:55.767Z,4.12
2019-05-26T07:14:15.290Z,4.87
2019-05-26T07:16:45.178Z,4.37
2019-05-26T07:19:14.289Z,4.53
2019-05-26T07:21:44.421Z,4.12
2019-05-26T07:24:14.087Z,4.42
2019-05-26T07:26:43.869Z,4.67
2019-05-26T07:29:16.695Z,4.67
2019-05-26T07:31:46.266Z,4.30
2019-05-26T07:34:18.539Z,4.07
2019-05-26T07:36:48.275Z,3.53
2019-05-26T07:39:19.973Z,4.23
2019-05-26T07:42:08.307Z,3.40
2019-05-26T07:44:21.234Z,3.93
2019-05-26T07:46:51.180Z,4.00
2019-05-26T07:49:21.546Z,4.23
2019-05-26T07:51:51.958Z,4.20
2019-05-26T07:54:25.696Z,4.27
2019-05-26T07:56:57.109Z,3.92
2019-05-26T07:59:30.519Z,4.10
2019-05-26T08:02:02.113Z,3.95
2019-05-26T08:04:35.260Z,4.05
2019-05-26T08:07:04.978Z,5.60
2019-05-26T08:09:35.197Z,3.90
2019-05-26T08:12:06.491Z,3.90
2019-05-26T08:14:37.429Z,3.62
2019-05-26T08:17:07.081Z,3.40
2019-05-26T08:19:39.264Z,3.23
2019-05-26T08:22:09.930Z,3.47
2019-05-26T08:24:39.734Z,3.67
2019-05-26T08:27:12.950Z,3.90
2019-05-26T08:29:50.424Z,3.83
2019-05-26T08:32:27.403Z,3.77
2019-05-26T08:40:18.466Z,3.40
2019-05-26T08:42:49.633Z,3.50
2019-05-26T08:45:22.122Z,3.27
2019-05-26T08:47:54.641Z,3.17
2019-05-26T08:50:24.823Z,3.05
2019-05-26T08:52:56.514Z,2.77
2019-05-26T08:55:26.175Z,3.80
2019-05-26T08:57:56.194Z,3.40
2019-05-26T09:00:26.329Z,3.43
2019-05-26T09:02:57.918Z,2.77
2019-05-26T09:05:31.134Z,3.00
2019-05-26T09:08:07.956Z,3.00
2019-05-26T09:10:36.211Z,2.80
2019-05-26T09:13:06.234Z,3.03
2019-05-26T09:15:37.338Z,3.03
2019-05-26T09:18:07.046Z,3.17
2019-05-26T10:53:10.913Z,2.80
2019-05-26T10:55:42.562Z,2.30
2019-05-26T10:58:11.730Z,2.90
2019-05-26T11:00:41.282Z,2.80
2019-05-26T11:03:10.890Z,2.60
2019-05-26T11:05:41.382Z,3.30
2019-05-26T11:08:11.751Z,2.60
2019-05-26T11:10:42.575Z,2.77
2019-05-26T11:13:12.215Z,2.47
2019-05-26T11:15:41.365Z,3.20
2019-05-26T11:18:11.179Z,2.92
2019-05-26T11:20:42.698Z,2.80
2019-05-26T11:23:12.416Z,2.55
2019-05-26T11:25:44.545Z,2.27
2019-05-26T11:28:13.978Z,3.17
2019-05-26T11:30:43.670Z,2.90
2019-05-26T11:33:12.939Z,2.60
2019-05-26T11:35:42.341Z,2.30
2019-05-26T11:38:11.521Z,2.80
2019-05-26T11:40:42.133Z,2.80
2019-05-26T11:55:38.119Z,2.65
2019-05-26T11:58:07.324Z,2.47
2019-05-26T12:00:36.858Z,2.03
2019-05-26T12:03:09.603Z,2.20
2019-05-26T12:05:40.719Z,2.33
2019-05-26T12:08:11.726Z,2.50
2019-05-26T12:10:41.237Z,2.17
2019-05-26T12:13:11.238Z,3.47
2019-05-26T12:15:42.649Z,2.20
2019-05-26T12:18:12.242Z,2.20
2019-05-26T12:20:42.357Z,2.10
2019-05-26T12:23:13.052Z,2.00
2019-05-26T12:25:42.966Z,2.50
2019-05-26T12:28:13.201Z,2.27
2019-05-26T12:30:45.788Z,2.20
2019-05-26T12:33:15.509Z,2.50
2019-05-26T12:35:48.049Z,2.17
2019-05-26T12:38:20.586Z,2.30
2019-05-26T12:40:50.008Z,2.10
2019-05-26T12:43:19.547Z,2.03
2019-05-26T12:45:50.177Z,1.83
2019-05-26T12:48:19.524Z,2.27
2019-05-26T12:50:50.178Z,2.27
2019-05-26T12:53:19.727Z,2.20
2019-05-26T12:55:52.575Z,2.30
2019-05-26T12:58:25.789Z,2.10
2019-05-26T13:00:55.973Z,2.10
2019-05-26T13:03:25.522Z,2.23
2019-05-26T13:05:59.235Z,2.20
2019-05-26T13:08:29.162Z,2.10
2019-05-26T13:11:08.006Z,2.17
2019-05-26T13:13:39.809Z,2.30
2019-05-26T13:16:09.810Z,2.20
2019-05-26T13:18:43.887Z,2.47
2019-05-26T13:21:14.505Z,2.10
2019-05-26T13:23:49.231Z,2.10
2019-05-26T13:28:50.018Z,2.30
2019-05-26T13:31:19.329Z,2.20
2019-05-26T13:33:49.443Z,2.37
2019-05-26T13:36:19.917Z,2.27
2019-05-26T13:38:49.175Z,2.33
2019-05-26T13:41:19.913Z,1.97
2019-05-26T13:43:49.098Z,2.73
2019-05-26T13:46:20.617Z,2.33
2019-05-26T13:48:50.953Z,2.03
2019-05-26T13:51:22.427Z,1.90
2019-05-26T13:53:52.801Z,1.90
2019-05-26T13:56:21.972Z,1.90
2019-05-26T13:58:51.503Z,2.43
2019-05-26T14:01:20.913Z,2.03
2019-05-26T14:03:50.196Z,3.20
2019-05-26T14:06:20.251Z,2.13
2019-05-26T14:08:50.272Z,2.13
2019-05-26T14:11:20.354Z,2.03
2019-05-26T14:13:49.466Z,2.30
2019-05-26T14:16:20.206Z,2.37
2019-05-26T14:18:50.634Z,2.13
2019-05-26T14:21:20.209Z,2.33
2019-05-26T14:23:55.575Z,3.40
2019-05-26T14:26:32.291Z,2.03
2019-05-26T14:29:02.816Z,1.90
2019-05-26T14:31:33.686Z,1.80
2019-05-26T14:34:03.766Z,2.17
2019-05-26T14:36:33.394Z,25.67
2019-05-26T14:39:04.166Z,2.80
2019-05-26T14:41:33.767Z,2.00
2019-05-26T14:44:03.438Z,2.20
2019-05-26T14:46:33.293Z,2.10
2019-05-26T14:56:29.860Z,2.03
2019-05-26T14:59:02.131Z,2.30
2019-05-26T15:01:31.928Z,1.90
2019-05-26T15:04:01.323Z,2.40
2019-05-26T15:06:32.316Z,2.22
2019-05-26T15:09:02.221Z,1.90
2019-05-26T15:11:31.622Z,2.33
2019-05-26T15:14:01.767Z,2.10
2019-05-26T15:16:31.348Z,2.05
2019-05-26T15:19:00.886Z,2.10
2019-05-26T15:21:31.178Z,2.20
2019-05-26T15:24:01.950Z,2.40
2019-05-26T15:26:31.464Z,2.50
2019-05-26T15:29:01.375Z,2.40
2019-05-26T15:31:30.878Z,3.00
2019-05-26T15:34:00.579Z,2.30
2019-05-26T15:36:30.294Z,2.10
2019-05-26T15:39:02.192Z,2.30
2019-05-26T15:41:39.618Z,2.07
2019-05-26T15:44:09.302Z,2.40
2019-05-26T15:46:39.271Z,2.20
2019-05-26T15:49:08.881Z,2.40
2019-05-26T15:51:39.407Z,2.00
2019-05-26T15:54:10.611Z,2.23
2019-05-26T15:56:46.630Z,2.40
2019-05-26T15:59:17.513Z,2.20
2019-05-26T16:01:50.226Z,2.30
2019-05-26T16:04:21.821Z,2.23
2019-05-26T16:06:54.683Z,2.20
2019-05-26T16:09:29.168Z,2.30
2019-05-26T16:12:04.169Z,2.37
2019-05-26T16:14:39.555Z,1.97
2019-05-26T16:17:20.602Z,2.20
2019-05-26T16:19:51.505Z,2.03
2019-05-26T16:22:25.783Z,1.87
2019-05-26T16:24:55.744Z,2.10
2019-05-26T16:27:31.080Z,1.83
2019-05-26T16:30:05.241Z,2.13
2019-05-26T16:32:38.208Z,2.40
2019-05-26T16:35:14.211Z,3.40
2019-05-26T16:37:47.921Z,2.43
2019-05-26T16:40:18.972Z,2.10
2019-05-26T16:42:50.324Z,2.30
2019-05-26T16:45:20.951Z,2.20
2019-05-26T16:47:51.919Z,2.47
2019-05-26T16:50:24.219Z,2.20
2019-05-26T16:52:54.731Z,2.70
2019-05-26T16:55:25.661Z,2.60
2019-05-26T16:57:55.434Z,2.50
2019-05-26T17:00:24.762Z,3.13
2019-05-26T17:02:54.873Z,3.10
2019-05-26T17:05:24.764Z,2.73
2019-05-26T17:07:56.333Z,2.40
2019-05-26T17:10:32.354Z,3.43
2019-05-26T17:13:01.802Z,2.40
2019-05-26T17:15:33.958Z,2.63
2019-05-26T17:18:03.171Z,2.70
2019-05-26T17:20:33.068Z,2.60
2019-05-26T17:23:03.213Z,2.30
2019-05-26T17:25:35.248Z,2.33
2019-05-26T17:28:12.023Z,2.30
2019-05-26T17:30:50.985Z,2.77
2019-05-26T17:33:37.225Z,2.20
2019-05-26T17:36:09.372Z,2.50
2019-05-26T17:38:41.550Z,2.53
2019-05-26T17:41:19.096Z,2.37
2019-05-26T17:43:49.167Z,2.73
2019-05-26T17:46:21.609Z,3.30
2019-05-26T17:48:54.231Z,2.83
2019-05-26T18:34:27.716Z,3.25
2019-05-26T18:36:57.099Z,3.10
2019-05-26T18:39:28.798Z,2.67
2019-05-26T18:41:58.420Z,2.93
2019-05-26T18:44:27.478Z,3.07
2019-05-26T18:46:56.861Z,3.90
2019-05-26T18:49:29.192Z,3.40
2019-05-26T18:51:58.866Z,3.87
2019-05-26T18:54:35.888Z,3.72
2019-05-26T18:57:15.461Z,3.20
2019-05-26T18:59:55.214Z,3.40
2019-05-26T19:02:32.590Z,3.40
2019-05-26T19:05:09.594Z,3.70
2019-05-26T19:07:39.419Z,3.23
2019-05-26T19:10:10.704Z,3.40
2019-05-26T19:12:46.981Z,3.30
2019-05-26T19:15:16.064Z,4.28
2019-05-26T19:17:45.737Z,3.80
2019-05-26T19:20:17.378Z,3.80
2019-05-26T19:22:47.776Z,3.30
2019-05-26T19:25:17.256Z,3.30
2019-05-26T19:27:48.576Z,3.50
2019-05-26T19:30:27.627Z,3.30
2019-05-26T19:32:57.238Z,4.67
2019-05-26T19:35:43.002Z,4.00
2019-05-26T19:38:15.320Z,3.77
2019-05-26T19:40:52.049Z,3.87
2019-05-26T19:43:22.446Z,4.40
2019-05-26T19:45:53.718Z,4.20
2019-05-26T19:48:37.200Z,4.28
2019-05-26T19:51:02.217Z,4.73
2019-05-26T19:53:49.671Z,4.60
2019-05-26T19:56:19.349Z,3.80
2019-05-26T19:58:49.377Z,3.63
2019-05-26T20:01:18.899Z,3.57
2019-05-26T20:03:48.407Z,3.50
2019-05-26T20:06:17.999Z,3.63
2019-05-26T20:08:49.886Z,3.90
2019-05-26T20:11:21.666Z,4.20
2019-05-26T20:13:51.412Z,3.67
2019-05-26T20:16:20.812Z,4.67
2019-05-26T20:18:53.234Z,3.90
2019-05-26T20:21:23.666Z,3.90
2019-05-26T20:23:55.306Z,4.60
2019-05-26T20:26:24.399Z,4.70
2019-05-26T20:28:55.569Z,5.50
2019-05-26T20:31:25.526Z,5.78
2019-05-26T20:33:56.202Z,5.62
2019-05-26T20:36:26.172Z,9.75
2019-05-26T20:38:56.832Z,6.90
2019-05-26T20:41:26.605Z,5.90
2019-05-26T20:43:56.122Z,5.50
2019-05-26T20:46:26.475Z,5.05
2019-05-26T20:48:56.363Z,4.95
2019-05-26T20:51:25.978Z,6.05
2019-05-26T20:53:55.652Z,5.10
2019-05-26T20:56:26.346Z,5.62
2019-05-26T20:58:55.862Z,4.90
2019-05-26T21:01:51.330Z,4.83
2019-05-26T21:04:20.994Z,5.60
2019-05-26T21:06:51.241Z,4.90
2019-05-26T21:09:20.843Z,4.92
2019-05-26T21:11:50.212Z,5.25
2019-05-26T21:14:19.765Z,5.62
2019-05-26T21:16:50.289Z,4.70
2019-05-26T21:19:20.515Z,4.92
2019-05-26T21:21:49.833Z,5.53
2019-05-26T21:24:25.244Z,5.05
2019-05-26T21:26:55.161Z,4.93
2019-05-26T21:29:24.668Z,4.83
2019-05-26T21:31:56.604Z,5.15
2019-05-26T21:34:28.715Z,5.70
2019-05-26T21:37:03.288Z,5.45
2019-05-26T21:39:34.566Z,5.57
2019-05-26T21:42:04.060Z,5.60
2019-05-26T21:44:34.314Z,5.53
2019-05-26T21:47:03.720Z,5.37
2019-05-26T21:49:33.596Z,5.00
2019-05-26T21:52:03.577Z,5.60
2019-05-26T22:01:58.663Z,5.03
2019-05-26T22:04:27.938Z,4.83
2019-05-26T22:06:57.426Z,4.73
2019-05-26T22:09:29.201Z,4.83
2019-05-26T22:11:58.690Z,4.63
2019-05-26T22:14:28.120Z,4.60
2019-05-26T22:16:57.379Z,5.22
2019-05-26T22:19:26.867Z,4.80
2019-05-26T22:21:58.092Z,6.20
2019-05-26T22:24:27.509Z,5.67
2019-05-26T22:26:57.325Z,5.17
2019-05-26T22:29:36.615Z,4.83
2019-05-26T22:32:07.352Z,5.17
2019-05-26T22:34:36.790Z,5.07
2019-05-26T22:37:06.359Z,5.80
2019-05-26T22:39:35.982Z,5.30
2019-05-26T22:42:05.692Z,5.73
2019-05-26T22:44:36.409Z,5.43
2019-05-26T22:47:06.520Z,5.47
2019-05-26T22:49:36.193Z,5.03
2019-05-26T22:52:05.449Z,4.97
2019-05-26T22:54:35.255Z,4.17
2019-05-26T22:57:04.755Z,5.13
2019-05-26T22:59:34.328Z,4.90
2019-05-26T23:02:03.786Z,5.07
2019-05-26T23:04:33.172Z,4.87
2019-05-26T23:07:02.492Z,5.30
2019-05-26T23:09:33.631Z,4.80
2019-05-26T23:14:31.031Z,4.43
2019-05-26T23:17:02.001Z,5.00
2019-05-26T23:19:31.354Z,4.47
2019-05-26T23:22:04.562Z,4.33
2019-05-26T23:24:33.895Z,4.10
2019-05-26T23:27:03.737Z,4.20
2019-05-26T23:29:33.386Z,4.00
2019-05-26T23:32:03.956Z,3.80
2019-05-26T23:34:33.976Z,3.97
2019-05-26T23:37:03.372Z,3.87
2019-05-26T23:39:32.484Z,3.93
2019-05-26T23:42:02.769Z,3.40
2019-05-26T23:44:32.231Z,4.20
2019-05-26T23:47:01.634Z,3.93
2019-05-26T23:49:31.309Z,4.53
2019-05-26T23:52:00.544Z,4.90
2019-05-26T23:54:29.723Z,4.40
2019-05-26T23:56:59.670Z,4.10
2019-05-26T23:59:29.073Z,3.83
